sensor_id;sensor_type;location;lat;lon;timestamp;P1;durP1;ratioP1;P2;durP2;ratioP2
19161;SDS011;9713;48.140;11.530;2023-02-04T00:02:00;2.23;;;1.73;;
19161;SDS011;9713;48.140;11.530;2023-02-04T00:05:43;2.33;;;1.40;;
19161;SDS011;9713;48.140;11.530;2023-02-04T00:09:25;2.97;;;1.50;;
19161;SDS011;9713;48.140;11.530;2023-02-04T00:13:09;1.57;;;1.40;;
19161;SDS011;9713;48.140;11.530;2023-02-04T00:16:52;2.13;;;1.60;;
19161;SDS011;9713;48.140;11.530;2023-02-04T00:20:35;2.73;;;1.30;;
19161;SDS011;9713;48.140;11.530;2023-02-04T00:24:18;3.73;;;1.50;;
19161;SDS011;9713;48.140;11.530;2023-02-04T00:28:00;1.97;;;1.37;;
19161;SDS011;9713;48.140;11.530;2023-02-04T00:31:45;2.57;;;1.57;;
19161;SDS011;9713;48.140;11.530;2023-02-04T00:35:28;2.43;;;1.40;;
19161;SDS011;9713;48.140;11.530;2023-02-04T00:39:11;2.03;;;1.53;;
19161;SDS011;9713;48.140;11.530;2023-02-04T00:42:53;2.10;;;1.50;;
19161;SDS011;9713;48.140;11.530;2023-02-04T00:46:36;1.77;;;1.43;;
19161;SDS011;9713;48.140;11.530;2023-02-04T00:50:20;7.50;;;1.50;;
19161;SDS011;9713;48.140;11.530;2023-02-04T00:54:03;2.03;;;1.40;;
19161;SDS011;9713;48.140;11.530;2023-02-04T00:57:46;1.63;;;1.30;;
19161;SDS011;9713;48.140;11.530;2023-02-04T01:01:28;2.13;;;1.57;;
19161;SDS011;9713;48.140;11.530;2023-02-04T01:05:11;2.30;;;1.40;;
19161;SDS011;9713;48.140;11.530;2023-02-04T01:08:55;3.33;;;1.20;;
19161;SDS011;9713;48.140;11.530;2023-02-04T01:12:38;1.47;;;1.23;;
19161;SDS011;9713;48.140;11.530;2023-02-04T01:16:21;3.90;;;1.60;;
19161;SDS011;9713;48.140;11.530;2023-02-04T01:20:04;1.90;;;1.37;;
19161;SDS011;9713;48.140;11.530;2023-02-04T01:23:47;2.57;;;1.43;;
19161;SDS011;9713;48.140;11.530;2023-02-04T01:27:32;2.40;;;1.60;;
19161;SDS011;9713;48.140;11.530;2023-02-04T01:31:15;1.63;;;1.10;;
19161;SDS011;9713;48.140;11.530;2023-02-04T01:34:58;1.10;;;1.00;;
19161;SDS011;9713;48.140;11.530;2023-02-04T01:38:41;2.27;;;1.30;;
19161;SDS011;9713;48.140;11.530;2023-02-04T01:42:23;3.77;;;0.90;;
19161;SDS011;9713;48.140;11.530;2023-02-04T01:46:07;2.73;;;0.80;;
19161;SDS011;9713;48.140;11.530;2023-02-04T01:49:52;1.53;;;0.97;;
19161;SDS011;9713;48.140;11.530;2023-02-04T01:53:36;1.87;;;0.90;;
19161;SDS011;9713;48.140;11.530;2023-02-04T01:57:19;2.87;;;1.00;;
19161;SDS011;9713;48.140;11.530;2023-02-04T02:01:02;3.00;;;0.97;;
19161;SDS011;9713;48.140;11.530;2023-02-04T02:04:49;2.67;;;1.00;;
19161;SDS011;9713;48.140;11.530;2023-02-04T02:08:32;5.53;;;1.30;;
19161;SDS011;9713;48.140;11.530;2023-02-04T02:12:14;2.53;;;1.00;;
19161;SDS011;9713;48.140;11.530;2023-02-04T02:15:57;3.63;;;1.40;;
19161;SDS011;9713;48.140;11.530;2023-02-04T02:19:40;6.90;;;1.80;;
19161;SDS011;9713;48.140;11.530;2023-02-04T02:23:25;6.83;;;1.73;;
19161;SDS011;9713;48.140;11.530;2023-02-04T02:27:24;6.53;;;2.00;;
19161;SDS011;9713;48.140;11.530;2023-02-04T02:31:07;7.23;;;2.10;;
19161;SDS011;9713;48.140;11.530;2023-02-04T02:34:50;6.93;;;2.10;;
19161;SDS011;9713;48.140;11.530;2023-02-04T02:38:32;6.77;;;2.77;;
19161;SDS011;9713;48.140;11.530;2023-02-04T02:42:17;10.27;;;2.67;;
19161;SDS011;9713;48.140;11.530;2023-02-04T02:46:00;6.87;;;2.40;;
19161;SDS011;9713;48.140;11.530;2023-02-04T02:49:43;7.67;;;2.33;;
19161;SDS011;9713;48.140;11.530;2023-02-04T02:53:26;10.37;;;2.67;;
19161;SDS011;9713;48.140;11.530;2023-02-04T02:57:10;11.20;;;3.10;;
19161;SDS011;9713;48.140;11.530;2023-02-04T03:00:56;14.27;;;2.87;;
19161;SDS011;9713;48.140;11.530;2023-02-04T03:04:40;15.83;;;3.00;;
19161;SDS011;9713;48.140;11.530;2023-02-04T03:08:24;8.60;;;2.80;;
19161;SDS011;9713;48.140;11.530;2023-02-04T03:12:07;13.67;;;3.03;;
19161;SDS011;9713;48.140;11.530;2023-02-04T03:15:49;10.80;;;2.93;;
19161;SDS011;9713;48.140;11.530;2023-02-04T03:19:33;17.33;;;3.40;;
19161;SDS011;9713;48.140;11.530;2023-02-04T03:23:17;14.67;;;2.90;;
19161;SDS011;9713;48.140;11.530;2023-02-04T03:27:00;17.47;;;2.87;;
19161;SDS011;9713;48.140;11.530;2023-02-04T03:30:43;17.17;;;3.53;;
19161;SDS011;9713;48.140;11.530;2023-02-04T03:34:35;19.00;;;3.27;;
19161;SDS011;9713;48.140;11.530;2023-02-04T03:38:18;13.70;;;3.07;;
19161;SDS011;9713;48.140;11.530;2023-02-04T03:42:00;16.53;;;3.33;;
19161;SDS011;9713;48.140;11.530;2023-02-04T03:45:43;13.00;;;2.70;;
19161;SDS011;9713;48.140;11.530;2023-02-04T03:49:26;13.77;;;2.77;;
19161;SDS011;9713;48.140;11.530;2023-02-04T03:53:11;13.27;;;2.83;;
19161;SDS011;9713;48.140;11.530;2023-02-04T03:56:53;8.30;;;2.63;;
19161;SDS011;9713;48.140;11.530;2023-02-04T04:00:36;13.17;;;2.43;;
19161;SDS011;9713;48.140;11.530;2023-02-04T04:04:19;14.50;;;2.60;;
19161;SDS011;9713;48.140;11.530;2023-02-04T04:08:01;12.53;;;2.60;;
19161;SDS011;9713;48.140;11.530;2023-02-04T04:11:45;9.80;;;2.50;;
19161;SDS011;9713;48.140;11.530;2023-02-04T04:15:29;7.17;;;2.57;;
19161;SDS011;9713;48.140;11.530;2023-02-04T04:19:11;9.93;;;2.70;;
19161;SDS011;9713;48.140;11.530;2023-02-04T04:22:54;17.00;;;2.67;;
19161;SDS011;9713;48.140;11.530;2023-02-04T04:26:37;15.03;;;2.63;;
19161;SDS011;9713;48.140;11.530;2023-02-04T04:30:21;13.17;;;2.53;;
19161;SDS011;9713;48.140;11.530;2023-02-04T04:34:04;14.60;;;2.60;;
19161;SDS011;9713;48.140;11.530;2023-02-04T04:37:46;13.47;;;2.63;;
19161;SDS011;9713;48.140;11.530;2023-02-04T04:41:29;9.03;;;2.93;;
19161;SDS011;9713;48.140;11.530;2023-02-04T04:45:12;9.37;;;2.37;;
19161;SDS011;9713;48.140;11.530;2023-02-04T04:48:56;12.23;;;2.23;;
19161;SDS011;9713;48.140;11.530;2023-02-04T04:52:38;15.87;;;3.07;;
19161;SDS011;9713;48.140;11.530;2023-02-04T04:56:21;14.20;;;2.70;;
19161;SDS011;9713;48.140;11.530;2023-02-04T05:00:07;15.50;;;2.70;;
19161;SDS011;9713;48.140;11.530;2023-02-04T05:03:51;11.80;;;2.83;;
19161;SDS011;9713;48.140;11.530;2023-02-04T05:07:35;13.17;;;2.60;;
19161;SDS011;9713;48.140;11.530;2023-02-04T05:11:18;9.97;;;2.00;;
19161;SDS011;9713;48.140;11.530;2023-02-04T05:15:01;16.47;;;2.70;;
19161;SDS011;9713;48.140;11.530;2023-02-04T05:18:44;11.97;;;2.37;;
19161;SDS011;9713;48.140;11.530;2023-02-04T05:22:26;9.63;;;2.70;;
19161;SDS011;9713;48.140;11.530;2023-02-04T05:26:10;7.03;;;2.93;;
19161;SDS011;9713;48.140;11.530;2023-02-04T05:30:05;12.73;;;2.57;;
19161;SDS011;9713;48.140;11.530;2023-02-04T05:33:48;12.23;;;2.47;;
19161;SDS011;9713;48.140;11.530;2023-02-04T05:37:31;13.60;;;2.70;;
19161;SDS011;9713;48.140;11.530;2023-02-04T05:41:15;12.77;;;3.10;;
19161;SDS011;9713;48.140;11.530;2023-02-04T05:44:58;12.57;;;2.70;;
19161;SDS011;9713;48.140;11.530;2023-02-04T05:48:41;12.90;;;2.97;;
19161;SDS011;9713;48.140;11.530;2023-02-04T05:52:24;13.17;;;2.87;;
19161;SDS011;9713;48.140;11.530;2023-02-04T05:56:06;10.23;;;2.60;;
19161;SDS011;9713;48.140;11.530;2023-02-04T05:59:50;11.20;;;2.87;;
19161;SDS011;9713;48.140;11.530;2023-02-04T06:03:33;11.63;;;2.97;;
19161;SDS011;9713;48.140;11.530;2023-02-04T06:07:16;11.00;;;2.90;;
19161;SDS011;9713;48.140;11.530;2023-02-04T06:10:59;13.80;;;2.87;;
19161;SDS011;9713;48.140;11.530;2023-02-04T06:14:42;18.23;;;3.53;;
19161;SDS011;9713;48.140;11.530;2023-02-04T06:18:26;13.83;;;3.40;;
19161;SDS011;9713;48.140;11.530;2023-02-04T06:22:08;16.20;;;3.10;;
19161;SDS011;9713;48.140;11.530;2023-02-04T06:25:51;12.77;;;3.67;;
19161;SDS011;9713;48.140;11.530;2023-02-04T06:29:34;13.83;;;2.90;;
19161;SDS011;9713;48.140;11.530;2023-02-04T06:33:16;10.70;;;3.00;;
19161;SDS011;9713;48.140;11.530;2023-02-04T06:37:00;10.27;;;3.23;;
19161;SDS011;9713;48.140;11.530;2023-02-04T06:40:43;12.10;;;3.20;;
19161;SDS011;9713;48.140;11.530;2023-02-04T06:44:29;9.40;;;3.17;;
19161;SDS011;9713;48.140;11.530;2023-02-04T06:48:12;12.83;;;3.23;;
19161;SDS011;9713;48.140;11.530;2023-02-04T06:51:54;17.07;;;3.40;;
19161;SDS011;9713;48.140;11.530;2023-02-04T06:55:38;14.37;;;2.97;;
19161;SDS011;9713;48.140;11.530;2023-02-04T06:59:21;14.23;;;3.03;;
19161;SDS011;9713;48.140;11.530;2023-02-04T07:03:06;15.73;;;3.20;;
19161;SDS011;9713;48.140;11.530;2023-02-04T07:06:48;15.43;;;3.00;;
19161;SDS011;9713;48.140;11.530;2023-02-04T07:10:31;10.57;;;3.63;;
19161;SDS011;9713;48.140;11.530;2023-02-04T07:14:16;13.40;;;2.80;;
19161;SDS011;9713;48.140;11.530;2023-02-04T07:17:59;6.57;;;2.57;;
19161;SDS011;9713;48.140;11.530;2023-02-04T07:21:42;13.87;;;2.80;;
19161;SDS011;9713;48.140;11.530;2023-02-04T07:25:25;14.97;;;3.20;;
19161;SDS011;9713;48.140;11.530;2023-02-04T07:29:07;12.03;;;2.97;;
19161;SDS011;9713;48.140;11.530;2023-02-04T07:33:02;11.10;;;3.00;;
19161;SDS011;9713;48.140;11.530;2023-02-04T07:36:47;10.73;;;2.70;;
19161;SDS011;9713;48.140;11.530;2023-02-04T07:40:30;12.77;;;3.23;;
19161;SDS011;9713;48.140;11.530;2023-02-04T07:44:14;15.30;;;4.07;;
19161;SDS011;9713;48.140;11.530;2023-02-04T07:47:56;8.93;;;2.43;;
19161;SDS011;9713;48.140;11.530;2023-02-04T07:51:40;13.27;;;3.10;;
19161;SDS011;9713;48.140;11.530;2023-02-04T07:55:23;11.70;;;2.40;;
19161;SDS011;9713;48.140;11.530;2023-02-04T07:59:06;9.07;;;2.40;;
19161;SDS011;9713;48.140;11.530;2023-02-04T08:02:48;8.70;;;2.30;;
19161;SDS011;9713;48.140;11.530;2023-02-04T08:06:31;10.53;;;2.50;;
19161;SDS011;9713;48.140;11.530;2023-02-04T08:10:16;11.73;;;2.60;;
19161;SDS011;9713;48.140;11.530;2023-02-04T08:13:59;7.20;;;2.50;;
19161;SDS011;9713;48.140;11.530;2023-02-04T08:17:41;12.70;;;2.27;;
19161;SDS011;9713;48.140;11.530;2023-02-04T08:21:24;12.00;;;2.70;;
19161;SDS011;9713;48.140;11.530;2023-02-04T08:25:08;11.07;;;2.40;;
19161;SDS011;9713;48.140;11.530;2023-02-04T08:28:53;13.57;;;3.10;;
19161;SDS011;9713;48.140;11.530;2023-02-04T08:32:36;9.03;;;2.67;;
19161;SDS011;9713;48.140;11.530;2023-02-04T08:36:21;13.00;;;2.40;;
19161;SDS011;9713;48.140;11.530;2023-02-04T08:40:04;12.63;;;2.93;;
19161;SDS011;9713;48.140;11.530;2023-02-04T08:43:47;13.70;;;2.53;;
19161;SDS011;9713;48.140;11.530;2023-02-04T08:47:31;9.30;;;2.40;;
19161;SDS011;9713;48.140;11.530;2023-02-04T08:51:14;10.73;;;2.47;;
19161;SDS011;9713;48.140;11.530;2023-02-04T08:54:57;9.27;;;2.50;;
19161;SDS011;9713;48.140;11.530;2023-02-04T08:58:41;9.50;;;2.73;;
19161;SDS011;9713;48.140;11.530;2023-02-04T09:02:23;9.50;;;2.40;;
19161;SDS011;9713;48.140;11.530;2023-02-04T09:06:07;13.53;;;3.03;;
19161;SDS011;9713;48.140;11.530;2023-02-04T09:09:50;9.23;;;2.43;;
19161;SDS011;9713;48.140;11.530;2023-02-04T09:13:34;10.43;;;2.53;;
19161;SDS011;9713;48.140;11.530;2023-02-04T09:17:16;19.03;;;3.00;;
19161;SDS011;9713;48.140;11.530;2023-02-04T09:20:59;9.63;;;2.10;;
19161;SDS011;9713;48.140;11.530;2023-02-04T09:24:43;9.00;;;2.10;;
19161;SDS011;9713;48.140;11.530;2023-02-04T09:28:26;15.30;;;3.40;;
19161;SDS011;9713;48.140;11.530;2023-02-04T09:32:08;10.43;;;1.93;;
19161;SDS011;9713;48.140;11.530;2023-02-04T09:35:51;12.03;;;2.50;;
19161;SDS011;9713;48.140;11.530;2023-02-04T09:39:34;12.07;;;2.53;;
19161;SDS011;9713;48.140;11.530;2023-02-04T09:43:19;13.20;;;2.50;;
19161;SDS011;9713;48.140;11.530;2023-02-04T09:47:05;11.57;;;2.50;;
19161;SDS011;9713;48.140;11.530;2023-02-04T09:50:48;10.53;;;2.60;;
19161;SDS011;9713;48.140;11.530;2023-02-04T09:54:31;8.37;;;2.23;;
19161;SDS011;9713;48.140;11.530;2023-02-04T09:58:17;10.13;;;2.47;;
19161;SDS011;9713;48.140;11.530;2023-02-04T10:02:04;12.40;;;2.40;;
19161;SDS011;9713;48.140;11.530;2023-02-04T10:05:52;15.00;;;2.53;;
19161;SDS011;9713;48.140;11.530;2023-02-04T10:09:35;11.07;;;2.53;;
19161;SDS011;9713;48.140;11.530;2023-02-04T10:13:21;11.20;;;2.73;;
19161;SDS011;9713;48.140;11.530;2023-02-04T10:17:06;12.40;;;2.43;;
19161;SDS011;9713;48.140;11.530;2023-02-04T10:20:52;14.10;;;2.63;;
19161;SDS011;9713;48.140;11.530;2023-02-04T10:24:37;12.93;;;2.10;;
19161;SDS011;9713;48.140;11.530;2023-02-04T10:28:21;12.87;;;2.50;;
19161;SDS011;9713;48.140;11.530;2023-02-04T10:32:24;14.23;;;2.63;;
19161;SDS011;9713;48.140;11.530;2023-02-04T10:36:08;16.40;;;2.63;;
19161;SDS011;9713;48.140;11.530;2023-02-04T10:39:51;10.60;;;2.37;;
19161;SDS011;9713;48.140;11.530;2023-02-04T10:43:35;8.20;;;2.27;;
19161;SDS011;9713;48.140;11.530;2023-02-04T10:47:18;6.67;;;1.80;;
19161;SDS011;9713;48.140;11.530;2023-02-04T10:51:02;10.40;;;1.63;;
19161;SDS011;9713;48.140;11.530;2023-02-04T10:54:45;3.50;;;1.40;;
19161;SDS011;9713;48.140;11.530;2023-02-04T10:58:29;7.67;;;2.13;;
19161;SDS011;9713;48.140;11.530;2023-02-04T11:02:25;7.93;;;2.10;;
19161;SDS011;9713;48.140;11.530;2023-02-04T11:06:14;7.53;;;1.90;;
19161;SDS011;9713;48.140;11.530;2023-02-04T11:09:59;6.77;;;2.00;;
19161;SDS011;9713;48.140;11.530;2023-02-04T11:13:42;6.40;;;2.30;;
19161;SDS011;9713;48.140;11.530;2023-02-04T11:17:29;7.43;;;1.87;;
19161;SDS011;9713;48.140;11.530;2023-02-04T11:21:13;5.10;;;1.80;;
19161;SDS011;9713;48.140;11.530;2023-02-04T11:24:59;5.37;;;1.67;;
19161;SDS011;9713;48.140;11.530;2023-02-04T11:28:55;5.83;;;2.13;;
19161;SDS011;9713;48.140;11.530;2023-02-04T11:32:59;3.43;;;1.30;;
19161;SDS011;9713;48.140;11.530;2023-02-04T11:36:54;1.90;;;0.90;;
19161;SDS011;9713;48.140;11.530;2023-02-04T11:40:38;5.80;;;1.20;;
19161;SDS011;9713;48.140;11.530;2023-02-04T11:44:23;4.03;;;1.53;;
19161;SDS011;9713;48.140;11.530;2023-02-04T11:48:11;4.17;;;1.50;;
19161;SDS011;9713;48.140;11.530;2023-02-04T11:52:10;1.90;;;1.40;;
19161;SDS011;9713;48.140;11.530;2023-02-04T11:55:55;4.63;;;1.10;;
19161;SDS011;9713;48.140;11.530;2023-02-04T11:59:38;3.77;;;1.00;;
19161;SDS011;9713;48.140;11.530;2023-02-04T12:03:25;5.60;;;1.43;;
19161;SDS011;9713;48.140;11.530;2023-02-04T12:07:10;3.07;;;1.17;;
19161;SDS011;9713;48.140;11.530;2023-02-04T12:11:02;4.83;;;1.43;;
19161;SDS011;9713;48.140;11.530;2023-02-04T12:14:54;4.20;;;1.40;;
19161;SDS011;9713;48.140;11.530;2023-02-04T12:18:39;4.93;;;1.37;;
19161;SDS011;9713;48.140;11.530;2023-02-04T12:22:22;3.07;;;1.20;;
19161;SDS011;9713;48.140;11.530;2023-02-04T12:26:05;2.80;;;1.07;;
19161;SDS011;9713;48.140;11.530;2023-02-04T12:29:48;3.27;;;1.40;;
19161;SDS011;9713;48.140;11.530;2023-02-04T12:33:31;2.37;;;1.17;;
19161;SDS011;9713;48.140;11.530;2023-02-04T12:37:15;3.07;;;1.13;;
19161;SDS011;9713;48.140;11.530;2023-02-04T12:40:58;2.87;;;1.47;;
19161;SDS011;9713;48.140;11.530;2023-02-04T12:44:41;2.30;;;1.10;;
19161;SDS011;9713;48.140;11.530;2023-02-04T12:48:24;3.43;;;1.10;;
19161;SDS011;9713;48.140;11.530;2023-02-04T12:52:07;3.17;;;1.30;;
19161;SDS011;9713;48.140;11.530;2023-02-04T12:55:51;2.80;;;1.10;;
19161;SDS011;9713;48.140;11.530;2023-02-04T12:59:35;2.90;;;1.37;;
19161;SDS011;9713;48.140;11.530;2023-02-04T13:03:18;5.53;;;1.30;;
19161;SDS011;9713;48.140;11.530;2023-02-04T13:07:03;2.70;;;1.30;;
19161;SDS011;9713;48.140;11.530;2023-02-04T13:10:47;1.77;;;1.27;;
19161;SDS011;9713;48.140;11.530;2023-02-04T13:14:33;3.70;;;1.87;;
19161;SDS011;9713;48.140;11.530;2023-02-04T13:18:16;5.83;;;2.60;;
19161;SDS011;9713;48.140;11.530;2023-02-04T13:21:59;2.40;;;1.50;;
19161;SDS011;9713;48.140;11.530;2023-02-04T13:25:42;4.87;;;1.53;;
19161;SDS011;9713;48.140;11.530;2023-02-04T13:29:25;3.47;;;1.27;;
19161;SDS011;9713;48.140;11.530;2023-02-04T13:33:09;4.17;;;1.53;;
19161;SDS011;9713;48.140;11.530;2023-02-04T13:36:52;5.57;;;1.93;;
19161;SDS011;9713;48.140;11.530;2023-02-04T13:40:35;3.53;;;1.53;;
19161;SDS011;9713;48.140;11.530;2023-02-04T13:44:19;6.20;;;1.70;;
19161;SDS011;9713;48.140;11.530;2023-02-04T13:48:02;4.80;;;1.70;;
19161;SDS011;9713;48.140;11.530;2023-02-04T13:51:46;4.47;;;1.50;;
19161;SDS011;9713;48.140;11.530;2023-02-04T13:55:30;2.83;;;1.27;;
19161;SDS011;9713;48.140;11.530;2023-02-04T13:59:13;2.83;;;1.33;;
19161;SDS011;9713;48.140;11.530;2023-02-04T14:02:56;4.23;;;1.77;;
19161;SDS011;9713;48.140;11.530;2023-02-04T14:06:38;4.97;;;2.73;;
19161;SDS011;9713;48.140;11.530;2023-02-04T14:10:25;2.83;;;1.80;;
19161;SDS011;9713;48.140;11.530;2023-02-04T14:14:08;5.23;;;1.90;;
19161;SDS011;9713;48.140;11.530;2023-02-04T14:17:50;3.60;;;1.30;;
19161;SDS011;9713;48.140;11.530;2023-02-04T14:21:33;2.90;;;1.40;;
19161;SDS011;9713;48.140;11.530;2023-02-04T14:25:16;1.60;;;1.30;;
19161;SDS011;9713;48.140;11.530;2023-02-04T14:29:00;2.23;;;1.10;;
19161;SDS011;9713;48.140;11.530;2023-02-04T14:32:44;2.77;;;1.50;;
19161;SDS011;9713;48.140;11.530;2023-02-04T14:36:27;1.97;;;1.47;;
19161;SDS011;9713;48.140;11.530;2023-02-04T14:40:10;1.83;;;1.37;;
19161;SDS011;9713;48.140;11.530;2023-02-04T14:43:54;1.70;;;1.03;;
19161;SDS011;9713;48.140;11.530;2023-02-04T14:47:41;3.00;;;1.50;;
19161;SDS011;9713;48.140;11.530;2023-02-04T14:51:24;2.13;;;1.00;;
19161;SDS011;9713;48.140;11.530;2023-02-04T14:55:07;1.50;;;1.00;;
19161;SDS011;9713;48.140;11.530;2023-02-04T14:58:50;4.07;;;1.23;;
19161;SDS011;9713;48.140;11.530;2023-02-04T15:02:33;2.67;;;1.47;;
19161;SDS011;9713;48.140;11.530;2023-02-04T15:06:17;2.70;;;1.60;;
19161;SDS011;9713;48.140;11.530;2023-02-04T15:10:00;2.77;;;1.30;;
19161;SDS011;9713;48.140;11.530;2023-02-04T15:13:43;2.70;;;1.60;;
19161;SDS011;9713;48.140;11.530;2023-02-04T15:17:26;3.80;;;1.60;;
19161;SDS011;9713;48.140;11.530;2023-02-04T15:21:09;3.33;;;1.60;;
19161;SDS011;9713;48.140;11.530;2023-02-04T15:24:53;2.67;;;1.83;;
19161;SDS011;9713;48.140;11.530;2023-02-04T15:28:35;3.77;;;1.50;;
19161;SDS011;9713;48.140;11.530;2023-02-04T15:32:18;5.83;;;3.63;;
19161;SDS011;9713;48.140;11.530;2023-02-04T15:36:01;4.23;;;2.93;;
19161;SDS011;9713;48.140;11.530;2023-02-04T15:39:44;3.90;;;2.50;;
19161;SDS011;9713;48.140;11.530;2023-02-04T15:43:28;4.27;;;2.10;;
19161;SDS011;9713;48.140;11.530;2023-02-04T15:47:10;2.73;;;1.50;;
19161;SDS011;9713;48.140;11.530;2023-02-04T15:50:53;3.43;;;1.80;;
19161;SDS011;9713;48.140;11.530;2023-02-04T15:54:36;2.30;;;1.60;;
19161;SDS011;9713;48.140;11.530;2023-02-04T15:58:20;2.43;;;1.80;;
19161;SDS011;9713;48.140;11.530;2023-02-04T16:02:04;2.80;;;1.70;;
19161;SDS011;9713;48.140;11.530;2023-02-04T16:05:47;3.73;;;1.60;;
19161;SDS011;9713;48.140;11.530;2023-02-04T16:09:29;3.43;;;1.53;;
19161;SDS011;9713;48.140;11.530;2023-02-04T16:13:12;3.33;;;1.70;;
19161;SDS011;9713;48.140;11.530;2023-02-04T16:16:55;2.97;;;1.73;;
19161;SDS011;9713;48.140;11.530;2023-02-04T16:20:39;2.47;;;1.50;;
19161;SDS011;9713;48.140;11.530;2023-02-04T16:24:21;2.70;;;1.80;;
19161;SDS011;9713;48.140;11.530;2023-02-04T16:28:04;5.50;;;2.10;;
19161;SDS011;9713;48.140;11.530;2023-02-04T16:31:47;3.40;;;2.00;;
19161;SDS011;9713;48.140;11.530;2023-02-04T16:35:30;5.77;;;1.87;;
19161;SDS011;9713;48.140;11.530;2023-02-04T16:39:15;2.43;;;1.70;;
19161;SDS011;9713;48.140;11.530;2023-02-04T16:42:58;3.67;;;1.87;;
19161;SDS011;9713;48.140;11.530;2023-02-04T16:46:40;4.10;;;1.80;;
19161;SDS011;9713;48.140;11.530;2023-02-04T16:50:23;2.83;;;1.63;;
19161;SDS011;9713;48.140;11.530;2023-02-04T16:54:06;2.70;;;1.80;;
19161;SDS011;9713;48.140;11.530;2023-02-04T16:57:51;2.43;;;1.87;;
19161;SDS011;9713;48.140;11.530;2023-02-04T17:01:34;6.27;;;2.00;;
19161;SDS011;9713;48.140;11.530;2023-02-04T17:05:16;3.97;;;2.00;;
19161;SDS011;9713;48.140;11.530;2023-02-04T17:08:59;5.27;;;2.37;;
19161;SDS011;9713;48.140;11.530;2023-02-04T17:12:42;4.83;;;2.60;;
19161;SDS011;9713;48.140;11.530;2023-02-04T17:16:26;3.80;;;2.43;;
19161;SDS011;9713;48.140;11.530;2023-02-04T17:20:10;3.83;;;2.50;;
19161;SDS011;9713;48.140;11.530;2023-02-04T17:23:52;3.60;;;2.50;;
19161;SDS011;9713;48.140;11.530;2023-02-04T17:27:36;4.23;;;2.50;;
19161;SDS011;9713;48.140;11.530;2023-02-04T17:31:18;4.83;;;2.50;;
19161;SDS011;9713;48.140;11.530;2023-02-04T17:35:04;5.57;;;2.60;;
19161;SDS011;9713;48.140;11.530;2023-02-04T17:38:47;8.27;;;2.90;;
19161;SDS011;9713;48.140;11.530;2023-02-04T17:42:30;5.30;;;2.33;;
19161;SDS011;9713;48.140;11.530;2023-02-04T17:46:13;3.63;;;2.20;;
19161;SDS011;9713;48.140;11.530;2023-02-04T17:49:56;6.70;;;2.53;;
19161;SDS011;9713;48.140;11.530;2023-02-04T17:53:40;5.67;;;3.00;;
19161;SDS011;9713;48.140;11.530;2023-02-04T17:57:22;10.97;;;3.50;;
19161;SDS011;9713;48.140;11.530;2023-02-04T18:01:08;3.50;;;2.20;;
19161;SDS011;9713;48.140;11.530;2023-02-04T18:04:52;2.77;;;1.93;;
19161;SDS011;9713;48.140;11.530;2023-02-04T18:08:37;2.90;;;1.60;;
19161;SDS011;9713;48.140;11.530;2023-02-04T18:12:22;2.87;;;2.07;;
19161;SDS011;9713;48.140;11.530;2023-02-04T18:16:09;3.53;;;2.10;;
19161;SDS011;9713;48.140;11.530;2023-02-04T18:20:00;3.90;;;1.60;;
19161;SDS011;9713;48.140;11.530;2023-02-04T18:23:44;4.97;;;2.00;;
19161;SDS011;9713;48.140;11.530;2023-02-04T18:27:27;2.70;;;1.57;;
19161;SDS011;9713;48.140;11.530;2023-02-04T18:31:27;2.73;;;1.70;;
19161;SDS011;9713;48.140;11.530;2023-02-04T18:35:31;3.23;;;1.83;;
19161;SDS011;9713;48.140;11.530;2023-02-04T18:39:25;4.20;;;1.93;;
19161;SDS011;9713;48.140;11.530;2023-02-04T18:43:12;2.70;;;1.80;;
19161;SDS011;9713;48.140;11.530;2023-02-04T18:47:08;3.57;;;2.00;;
19161;SDS011;9713;48.140;11.530;2023-02-04T18:50:54;3.57;;;1.80;;
19161;SDS011;9713;48.140;11.530;2023-02-04T18:54:38;3.77;;;1.90;;
19161;SDS011;9713;48.140;11.530;2023-02-04T18:58:26;4.93;;;2.50;;
19161;SDS011;9713;48.140;11.530;2023-02-04T19:02:17;5.07;;;2.20;;
19161;SDS011;9713;48.140;11.530;2023-02-04T19:06:15;5.63;;;2.90;;
19161;SDS011;9713;48.140;11.530;2023-02-04T19:10:12;7.20;;;2.93;;
19161;SDS011;9713;48.140;11.530;2023-02-04T19:14:12;5.57;;;2.80;;
19161;SDS011;9713;48.140;11.530;2023-02-04T19:17:59;6.03;;;3.03;;
19161;SDS011;9713;48.140;11.530;2023-02-04T19:21:45;5.00;;;2.77;;
19161;SDS011;9713;48.140;11.530;2023-02-04T19:25:31;7.37;;;3.87;;
19161;SDS011;9713;48.140;11.530;2023-02-04T19:29:29;5.97;;;3.20;;
19161;SDS011;9713;48.140;11.530;2023-02-04T19:33:19;6.47;;;3.60;;
19161;SDS011;9713;48.140;11.530;2023-02-04T19:37:11;7.57;;;3.77;;
19161;SDS011;9713;48.140;11.530;2023-02-04T19:40:58;6.93;;;4.20;;
19161;SDS011;9713;48.140;11.530;2023-02-04T19:44:42;8.70;;;4.30;;
19161;SDS011;9713;48.140;11.530;2023-02-04T19:48:26;7.93;;;4.57;;
19161;SDS011;9713;48.140;11.530;2023-02-04T19:52:27;7.40;;;4.07;;
19161;SDS011;9713;48.140;11.530;2023-02-04T19:56:24;7.97;;;4.40;;
19161;SDS011;9713;48.140;11.530;2023-02-04T20:00:25;7.93;;;4.70;;
19161;SDS011;9713;48.140;11.530;2023-02-04T20:04:11;11.50;;;5.10;;
19161;SDS011;9713;48.140;11.530;2023-02-04T20:07:56;10.93;;;5.67;;
19161;SDS011;9713;48.140;11.530;2023-02-04T20:11:47;7.37;;;4.40;;
19161;SDS011;9713;48.140;11.530;2023-02-04T20:15:40;8.90;;;4.90;;
19161;SDS011;9713;48.140;11.530;2023-02-04T20:19:25;9.70;;;4.77;;
19161;SDS011;9713;48.140;11.530;2023-02-04T20:23:13;6.80;;;4.77;;
19161;SDS011;9713;48.140;11.530;2023-02-04T20:27:02;10.07;;;5.23;;
19161;SDS011;9713;48.140;11.530;2023-02-04T20:30:53;9.63;;;5.23;;
19161;SDS011;9713;48.140;11.530;2023-02-04T20:34:39;8.37;;;4.83;;
19161;SDS011;9713;48.140;11.530;2023-02-04T20:38:22;9.73;;;5.50;;
19161;SDS011;9713;48.140;11.530;2023-02-04T20:42:18;9.10;;;4.50;;
19161;SDS011;9713;48.140;11.530;2023-02-04T20:46:06;8.67;;;5.10;;
19161;SDS011;9713;48.140;11.530;2023-02-04T20:49:49;7.03;;;4.63;;
19161;SDS011;9713;48.140;11.530;2023-02-04T20:53:35;8.97;;;4.83;;
19161;SDS011;9713;48.140;11.530;2023-02-04T20:57:20;9.63;;;5.40;;
19161;SDS011;9713;48.140;11.530;2023-02-04T21:01:14;14.47;;;6.70;;
19161;SDS011;9713;48.140;11.530;2023-02-04T21:04:59;10.60;;;6.10;;
19161;SDS011;9713;48.140;11.530;2023-02-04T21:08:43;9.80;;;6.20;;
19161;SDS011;9713;48.140;11.530;2023-02-04T21:12:27;11.17;;;6.43;;
19161;SDS011;9713;48.140;11.530;2023-02-04T21:16:10;9.67;;;6.13;;
19161;SDS011;9713;48.140;11.530;2023-02-04T21:19:53;11.03;;;5.73;;
19161;SDS011;9713;48.140;11.530;2023-02-04T21:23:35;15.43;;;8.70;;
19161;SDS011;9713;48.140;11.530;2023-02-04T21:27:19;14.17;;;8.10;;
19161;SDS011;9713;48.140;11.530;2023-02-04T21:31:04;11.20;;;5.83;;
19161;SDS011;9713;48.140;11.530;2023-02-04T21:34:47;11.77;;;5.73;;
19161;SDS011;9713;48.140;11.530;2023-02-04T21:38:30;8.63;;;5.33;;
19161;SDS011;9713;48.140;11.530;2023-02-04T21:42:12;8.93;;;5.50;;
19161;SDS011;9713;48.140;11.530;2023-02-04T21:45:55;19.17;;;8.03;;
19161;SDS011;9713;48.140;11.530;2023-02-04T21:49:40;13.90;;;6.97;;
19161;SDS011;9713;48.140;11.530;2023-02-04T21:53:23;7.87;;;5.43;;
19161;SDS011;9713;48.140;11.530;2023-02-04T21:57:06;9.77;;;5.43;;
19161;SDS011;9713;48.140;11.530;2023-02-04T22:00:48;8.23;;;5.20;;
19161;SDS011;9713;48.140;11.530;2023-02-04T22:04:31;7.70;;;4.47;;
19161;SDS011;9713;48.140;11.530;2023-02-04T22:08:15;9.63;;;5.20;;
19161;SDS011;9713;48.140;11.530;2023-02-04T22:11:58;10.97;;;6.27;;
19161;SDS011;9713;48.140;11.530;2023-02-04T22:15:41;11.27;;;6.40;;
19161;SDS011;9713;48.140;11.530;2023-02-04T22:19:23;11.00;;;6.20;;
19161;SDS011;9713;48.140;11.530;2023-02-04T22:23:06;10.03;;;6.00;;
19161;SDS011;9713;48.140;11.530;2023-02-04T22:26:50;9.10;;;5.60;;